Portada
METAR-TAF:

METAR-TAF

Aeropuertos :

Libreville, Gabón

Aeropuerto Internacional de Libreville-Leon M'ba

latitud: 00-27N, longitud: 009-25E, altitud: 12 m

Observación

El informe se hizo hace 1 hora y 5 minutos, a las 06:00 UTC
Viento 11 kt del sur-sureste
Temperatura 24°C
Humedad 83%
Presión 1013 hPa
Visibilidad: 9000 m
Nubes dispersas a una altura de 1000 ft

METAR: FOOL 240600Z 16011KT 9000 SCT010 24/21 Q1013 NOSIG

Hora: 08:05 (07:05 UTC)

Pronóstico

El informe se hizo hace 14 horas y 5 minutos, a las 17:00 UTC
Pronóstico válido del 23 a las 18 UTC al 24 a las 24 UTC
Viento 8 kt del sur-suroeste
Visibilidad: 8000 m
Nubes dispersas a una altura de 800 ft
Cielo nuboso a una altura de 2600 ft
Temporalmente
del 24 a las 05 UTC al 24 a las 09 UTC
Visibilidad: 3000 m
Cielo nuboso a una altura de 800 ft
neblina

TAF: FOOL 231700Z 2318/2424 20008KT 8000 SCT008 BKN026 TEMPO 2405/2409 3000 BR BKN008

Observaciones y pronósticos meteorológicos de más de 4000 aeropuertos (mensajes METAR y TAF).

Los puntos amarillos y rojos representan las estaciones disponibles.

Ponga el ratón en el punto deseado para ver el nombre de la estación.

Haga clic para ver las observaciones y los pronósticos meteorológicos.

Para cambiar el mapa : haga clic en los botones verdes con una cruz de color negro para hacer un zoom, en el botón verde con un guión para alejar o en las flechas verdes para mapas adyacentes.


METAR-TAF: